Airfield :
LOGIN :

Register | Disclaimer

   EN    FR    IT 

 










Legend :    VFR   Marginal VFR   IFR   Intensive IFR   Very Intensive IFR
Visi :
Ceiling :
>= 8 km
>= 3000ft
5 to 8 km
1000 to 3000 ft
1500m to 5 km
500 to 1000 ft
800 to 1500m
200 to 500 ft
< 800m
< 200 ft
Symbols :   Thunderstorms  Fog  Heavy snow  Heavy precipitations  Wind > 20 kt
SIGMETs :     Misc.  Thunderstorms  Icing  Turbulence  Mountain Waves  Volcanic Ashes






- Airport Elevation : 19 ft
- IATA code : LCY


EGLC - London City

CURRENT METAR :
  • 021350Z AUTO 07005KT 5000 HZ OVC011 07/04 Q1030

EXPIRED METARs :
  • 021320Z AUTO 09004KT 060V140 4900 HZ OVC010 07/04 Q1030
  • 021250Z AUTO VRB03KT 5000 HZ OVC008 06/04 Q1030
  • 021220Z AUTO 07005KT 030V110 5000 HZ OVC008 06/04 Q1031
  • 021150Z AUTO 08006KT 4800 HZ OVC007 05/03 Q1031
  • 021120Z AUTO VRB03KT 5000 HZ OVC006 05/03 Q1031

TAF TAF EGLC
Valid from the 02 at 12:00 until the 02 at 21:00 UTC


021058Z 0212/0221 06006KT 3000 BR BKN005
BECMG 0212/0215 9999 NSW SCT010
PROB30
TEMPO 0215/0221 8000
ATIS : +44 20 7646 0224



MET'MAP, your aeronautical weather chart ! - Copyright ORBIFLY December 2007 - Disclaimer

ORBIFLY MET'MAP TEAM :

Programming & Development : Alexandra Zaïnal
Concept & original design : Baudouin d'Aumeries
Assistance for programming : Marc-Olivier Méhu
Technical & hardware support : Manuel Goepfert

Contact : metmap@orbifly.com




SOURCES & CREDITS :

   NOAA